createdAt,value
2023-02-13T00:00:51.434Z,3.02
2023-02-13T00:03:19.306Z,2.90
2023-02-13T00:05:47.021Z,2.89
2023-02-13T00:08:14.486Z,2.81
2023-02-13T00:10:42.286Z,2.71
2023-02-13T00:13:10.001Z,2.63
2023-02-13T00:15:37.570Z,2.58
2023-02-13T00:18:05.611Z,2.48
2023-02-13T00:20:33.067Z,2.37
2023-02-13T00:23:00.685Z,2.20
2023-02-13T00:25:29.032Z,2.15
2023-02-13T00:27:56.904Z,2.03
2023-02-13T00:30:24.432Z,1.87
2023-02-13T00:32:52.236Z,1.71
2023-02-13T00:35:19.756Z,1.67
2023-02-13T00:37:47.291Z,1.58
2023-02-13T00:40:15.361Z,1.46
2023-02-13T00:42:42.925Z,1.43
2023-02-13T00:45:10.419Z,1.47
2023-02-13T00:47:38.396Z,1.57
2023-02-13T00:50:06.334Z,1.57
2023-02-13T00:52:33.910Z,1.72
2023-02-13T00:55:01.702Z,1.82
2023-02-13T00:57:31.219Z,1.81
2023-02-13T00:59:59.171Z,1.87
2023-02-13T01:02:27.174Z,1.90
2023-02-13T01:04:55.081Z,1.93
2023-02-13T01:07:22.658Z,1.94
2023-02-13T01:09:50.465Z,1.94
2023-02-13T01:12:18.011Z,1.87
2023-02-13T01:14:45.691Z,1.88
2023-02-13T01:17:13.562Z,1.95
2023-02-13T01:19:41.481Z,1.90
2023-02-13T01:22:09.529Z,1.68
2023-02-13T01:24:37.357Z,1.60
2023-02-13T01:27:04.926Z,1.44
2023-02-13T01:29:32.512Z,1.34
2023-02-13T01:32:05.190Z,1.29
2023-02-13T01:34:33.999Z,1.30
2023-02-13T01:37:01.795Z,1.07
2023-02-13T01:39:29.297Z,0.99
2023-02-13T01:41:57.020Z,0.87
2023-02-13T01:44:48.381Z,0.99
2023-02-13T01:47:41.749Z,1.02
2023-02-13T01:50:16.895Z,1.06
2023-02-13T01:53:04.566Z,1.02
2023-02-13T01:55:35.259Z,0.97
2023-02-13T01:58:14.220Z,0.80
2023-02-13T02:00:43.835Z,0.71
2023-02-13T02:03:16.913Z,0.68
2023-02-13T02:05:45.008Z,0.68
2023-02-13T02:08:15.423Z,0.77
2023-02-13T02:10:43.367Z,0.65
2023-02-13T02:13:18.847Z,0.55
2023-02-13T02:15:48.810Z,0.56
2023-02-13T02:18:19.240Z,0.60
2023-02-13T02:21:08.979Z,0.66
2023-02-13T02:24:01.712Z,0.82
2023-02-13T02:26:46.533Z,0.79
2023-02-13T02:29:49.006Z,0.70
2023-02-13T02:32:25.573Z,0.72
2023-02-13T02:35:02.294Z,0.75
2023-02-13T02:37:45.375Z,0.73
2023-02-13T02:40:27.015Z,0.61
2023-02-13T02:43:15.984Z,0.57
2023-02-13T02:46:23.060Z,0.47
2023-02-13T02:49:33.292Z,0.44
2023-02-13T02:52:18.364Z,0.44
2023-02-13T02:55:06.666Z,0.34
2023-02-13T02:58:04.210Z,0.34
2023-02-13T03:00:55.669Z,0.30
2023-02-13T03:03:44.778Z,0.19
2023-02-13T03:06:47.164Z,0.23
2023-02-13T03:09:42.808Z,0.36
2023-02-13T03:12:32.918Z,0.33
2023-02-13T03:15:00.767Z,0.20
2023-02-13T03:17:46.878Z,0.13
2023-02-13T03:20:59.457Z,0.18
2023-02-13T03:24:00.342Z,0.25
2023-02-13T03:26:33.319Z,0.36
2023-02-13T03:29:45.933Z,0.39
2023-02-13T03:32:31.946Z,0.38
2023-02-13T03:35:39.557Z,0.26
2023-02-13T03:38:28.825Z,0.29
2023-02-13T03:41:19.427Z,0.28
2023-02-13T03:44:09.059Z,0.25
2023-02-13T03:46:42.001Z,0.19
2023-02-13T03:49:36.396Z,0.13
2023-02-13T03:52:09.573Z,0.12
2023-02-13T03:55:07.170Z,0.14
2023-02-13T03:57:57.822Z,0.19
2023-02-13T04:00:33.516Z,0.30
2023-02-13T04:03:11.205Z,0.20
2023-02-13T04:05:47.690Z,0.09
2023-02-13T04:08:15.633Z,-0.06
2023-02-13T04:11:18.744Z,-0.06
2023-02-13T04:13:52.502Z,-0.17
2023-02-13T04:16:28.000Z,-0.11
2023-02-13T04:18:57.237Z,-0.05
2023-02-13T04:21:24.863Z,0.04
2023-02-13T04:23:52.529Z,-0.03
2023-02-13T04:26:22.638Z,-0.09
2023-02-13T04:28:50.230Z,-0.05
2023-02-13T04:31:17.903Z,-0.12
2023-02-13T04:33:45.794Z,-0.22
2023-02-13T04:36:13.277Z,-0.17
2023-02-13T04:38:40.753Z,-0.17
2023-02-13T04:41:08.591Z,-0.24
2023-02-13T04:43:36.121Z,-0.20
2023-02-13T04:46:03.962Z,-0.27
2023-02-13T04:48:31.942Z,-0.29
2023-02-13T04:50:59.723Z,-0.29
2023-02-13T04:53:27.617Z,-0.34
2023-02-13T04:55:55.402Z,-0.24
2023-02-13T04:58:22.886Z,-0.21
2023-02-13T05:00:50.356Z,-0.27
2023-02-13T05:03:18.390Z,-0.29
2023-02-13T05:05:45.951Z,-0.33
2023-02-13T05:08:13.533Z,-0.39
2023-02-13T05:10:41.372Z,-0.45
2023-02-13T05:13:09.043Z,-0.49
2023-02-13T05:15:36.651Z,-0.65
2023-02-13T05:18:04.642Z,-0.64
2023-02-13T05:20:32.132Z,-0.64
2023-02-13T05:23:29.126Z,-0.67
2023-02-13T05:25:56.994Z,-0.73
2023-02-13T05:28:43.429Z,-0.73
2023-02-13T05:31:11.536Z,-0.81
2023-02-13T05:33:39.372Z,-0.77
2023-02-13T05:36:07.410Z,-0.77
2023-02-13T05:38:35.424Z,-0.76
2023-02-13T05:41:03.331Z,-0.66
2023-02-13T05:43:30.973Z,-0.53
2023-02-13T05:46:09.863Z,-0.56
2023-02-13T05:48:37.510Z,-0.67
2023-02-13T05:51:05.638Z,-0.78
2023-02-13T05:53:37.992Z,-0.61
2023-02-13T05:56:06.774Z,-0.61
2023-02-13T05:58:35.001Z,-0.53
2023-02-13T06:01:03.029Z,-0.40
2023-02-13T06:03:32.054Z,-0.43
2023-02-13T06:06:00.248Z,-0.50
2023-02-13T06:08:27.936Z,-0.52
2023-02-13T06:10:55.809Z,-0.65
2023-02-13T06:13:24.158Z,-0.67
2023-02-13T06:15:51.712Z,-0.72
2023-02-13T06:18:19.845Z,-0.75
2023-02-13T06:20:47.381Z,-0.89
2023-02-13T06:23:15.036Z,-0.83
2023-02-13T06:25:42.953Z,-0.81
2023-02-13T06:28:10.508Z,-0.77
2023-02-13T06:30:38.149Z,-0.85
2023-02-13T06:33:06.028Z,-0.84
2023-02-13T06:35:33.563Z,-0.85
2023-02-13T06:38:01.124Z,-0.85
2023-02-13T06:40:28.990Z,-0.72
2023-02-13T06:42:56.748Z,-0.74
2023-02-13T06:45:24.316Z,-0.70
2023-02-13T06:47:52.154Z,-0.68
2023-02-13T06:50:19.878Z,-0.57
2023-02-13T06:52:48.916Z,-0.50
2023-02-13T06:55:17.708Z,-0.34
2023-02-13T06:57:45.687Z,-0.19
2023-02-13T07:00:16.776Z,-0.06
2023-02-13T07:02:46.435Z,0.18
2023-02-13T07:05:14.390Z,0.38
2023-02-13T07:07:42.826Z,0.38
2023-02-13T07:10:13.406Z,0.52
2023-02-13T07:12:40.974Z,0.72
2023-02-13T07:15:09.208Z,1.07
2023-02-13T07:17:37.276Z,1.37
2023-02-13T07:20:06.274Z,1.67
2023-02-13T07:22:33.775Z,2.07
2023-02-13T07:25:01.729Z,2.52
2023-02-13T07:27:29.584Z,2.96
2023-02-13T07:29:57.699Z,3.32
2023-02-13T07:32:26.126Z,3.68
2023-02-13T07:35:01.634Z,4.03
2023-02-13T07:37:31.625Z,4.40
2023-02-13T07:39:59.309Z,4.76
2023-02-13T07:42:26.929Z,5.17
2023-02-13T07:44:54.746Z,5.46
2023-02-13T07:47:22.262Z,5.77
2023-02-13T07:49:49.898Z,6.15
2023-02-13T07:52:17.699Z,6.56
2023-02-13T07:54:48.363Z,6.90
2023-02-13T07:57:17.271Z,7.12
2023-02-13T07:59:45.593Z,7.43
2023-02-13T08:02:14.504Z,7.79
2023-02-13T08:04:49.118Z,8.14
2023-02-13T08:07:18.375Z,8.52
2023-02-13T08:10:05.526Z,8.81
2023-02-13T08:12:36.054Z,9.07
2023-02-13T08:15:04.586Z,9.50
2023-02-13T08:17:32.128Z,9.91
2023-02-13T08:19:59.638Z,10.16
2023-02-13T08:22:27.477Z,10.63
2023-02-13T08:24:55.049Z,10.88
2023-02-13T08:27:23.120Z,11.10
2023-02-13T08:29:51.352Z,11.37
2023-02-13T08:32:19.132Z,11.69
2023-02-13T08:34:46.853Z,11.85
2023-02-13T08:37:14.700Z,11.89
2023-02-13T08:39:42.279Z,12.11
2023-02-13T08:42:10.648Z,12.30
2023-02-13T08:44:41.364Z,12.50
2023-02-13T08:47:09.307Z,12.79
2023-02-13T08:49:36.886Z,12.93
2023-02-13T08:52:05.811Z,12.87
2023-02-13T08:54:35.187Z,13.09
2023-02-13T08:57:02.758Z,13.17
2023-02-13T08:59:30.608Z,13.30
2023-02-13T09:01:58.370Z,13.28
2023-02-13T09:04:25.870Z,13.32
2023-02-13T09:06:53.704Z,13.41
2023-02-13T09:09:21.351Z,13.37
2023-02-13T09:11:50.966Z,13.49
2023-02-13T09:14:18.740Z,13.33
2023-02-13T09:16:46.223Z,13.40
2023-02-13T09:19:13.830Z,13.48
2023-02-13T09:21:41.643Z,13.60
2023-02-13T09:24:10.590Z,13.57
2023-02-13T09:26:38.199Z,13.67
2023-02-13T09:29:06.066Z,13.99
2023-02-13T09:31:33.718Z,14.13
2023-02-13T09:34:01.347Z,14.04
2023-02-13T09:36:29.185Z,14.09
2023-02-13T09:38:57.738Z,14.16
2023-02-13T09:41:28.965Z,14.21
2023-02-13T09:44:33.799Z,14.38
2023-02-13T09:47:10.226Z,14.37
2023-02-13T09:49:44.432Z,14.48
2023-02-13T09:52:12.070Z,14.37
2023-02-13T09:54:40.252Z,14.23
2023-02-13T09:57:18.743Z,14.31
2023-02-13T09:59:57.220Z,14.06
2023-02-13T10:02:47.373Z,13.85
2023-02-13T10:05:34.746Z,14.29
2023-02-13T10:08:18.544Z,14.62
2023-02-13T10:11:01.245Z,14.41
2023-02-13T10:13:42.262Z,14.52
2023-02-13T10:16:17.513Z,14.52
2023-02-13T10:19:03.333Z,14.14
2023-02-13T10:21:36.510Z,14.33
2023-02-13T10:24:18.254Z,14.23
2023-02-13T10:26:47.305Z,14.43
2023-02-13T10:30:04.609Z,14.39
2023-02-13T10:32:52.033Z,14.25
2023-02-13T10:35:24.181Z,13.95
2023-02-13T10:37:56.857Z,14.45
2023-02-13T10:40:32.101Z,14.42
2023-02-13T10:43:10.104Z,13.66
2023-02-13T10:46:03.838Z,13.28
2023-02-13T10:48:37.732Z,13.03
2023-02-13T10:51:24.184Z,12.56
2023-02-13T10:54:19.806Z,12.88
2023-02-13T10:56:56.538Z,12.90
2023-02-13T10:59:47.860Z,13.22
2023-02-13T11:02:23.460Z,12.79
2023-02-13T11:05:19.657Z,13.00
2023-02-13T11:07:50.260Z,13.62
2023-02-13T11:10:23.922Z,13.61
2023-02-13T11:12:52.749Z,13.58
2023-02-13T11:15:23.920Z,13.11
2023-02-13T11:17:53.496Z,12.77
2023-02-13T11:20:44.456Z,12.30
2023-02-13T11:23:32.156Z,12.41
2023-02-13T11:26:17.212Z,12.94
2023-02-13T11:28:55.871Z,13.32
2023-02-13T11:31:30.487Z,13.45
2023-02-13T11:34:00.169Z,13.90
2023-02-13T11:36:27.963Z,14.09
2023-02-13T11:39:05.729Z,14.18
2023-02-13T11:41:40.832Z,14.47
2023-02-13T11:44:20.085Z,14.20
2023-02-13T11:46:53.680Z,14.14
2023-02-13T11:49:25.284Z,14.22
2023-02-13T11:52:01.876Z,14.29
2023-02-13T11:55:05.306Z,13.83
2023-02-13T11:57:37.805Z,13.49
2023-02-13T12:00:41.813Z,13.42
2023-02-13T12:03:22.148Z,13.38
2023-02-13T12:06:06.904Z,12.82
2023-02-13T12:08:39.591Z,12.57
2023-02-13T12:11:25.691Z,12.14
2023-02-13T12:13:53.761Z,12.09
2023-02-13T12:16:45.444Z,11.89
2023-02-13T12:19:17.211Z,11.68
2023-02-13T12:22:09.114Z,11.62
2023-02-13T12:24:36.940Z,11.50
2023-02-13T12:27:07.324Z,11.32
2023-02-13T12:29:53.037Z,11.12
2023-02-13T12:33:08.723Z,11.02
2023-02-13T12:35:56.513Z,10.84
2023-02-13T12:38:38.965Z,10.86
2023-02-13T12:41:25.303Z,10.93
2023-02-13T12:44:08.198Z,10.83
2023-02-13T12:46:44.736Z,10.78
2023-02-13T12:49:40.767Z,10.61
2023-02-13T12:52:27.105Z,10.47
2023-02-13T12:55:17.364Z,10.32
2023-02-13T12:57:54.028Z,10.19
2023-02-13T13:00:48.173Z,9.90
2023-02-13T13:03:48.207Z,9.78
2023-02-13T13:06:49.473Z,9.79
2023-02-13T13:09:38.966Z,9.69
2023-02-13T13:12:15.555Z,9.69
2023-02-13T13:15:31.376Z,9.78
2023-02-13T13:17:59.208Z,9.75
2023-02-13T13:20:26.752Z,9.78
2023-02-13T13:23:04.591Z,9.76
2023-02-13T13:26:02.803Z,9.70
2023-02-13T13:28:36.821Z,9.72
2023-02-13T13:31:06.031Z,9.66
2023-02-13T13:33:35.441Z,9.70
2023-02-13T13:36:40.306Z,9.72
2023-02-13T13:39:31.311Z,9.64
2023-02-13T13:42:20.277Z,9.51
2023-02-13T13:45:21.971Z,9.41
2023-02-13T13:48:35.160Z,9.41
2023-02-13T13:51:03.413Z,9.56
2023-02-13T13:53:31.104Z,9.52
2023-02-13T13:56:10.501Z,9.33
2023-02-13T13:58:45.821Z,10.05
2023-02-13T14:01:25.731Z,9.47
2023-02-13T14:04:04.494Z,10.10
2023-02-13T14:06:47.352Z,10.06
2023-02-13T14:09:27.491Z,10.05
2023-02-13T14:11:56.777Z,9.85
2023-02-13T14:14:27.639Z,9.77
2023-02-13T14:16:58.749Z,9.49
2023-02-13T14:19:29.373Z,9.35
2023-02-13T14:22:24.817Z,9.17
2023-02-13T14:24:59.309Z,8.95
2023-02-13T14:27:37.725Z,8.71
2023-02-13T14:30:24.712Z,8.58
2023-02-13T14:32:52.612Z,8.46
2023-02-13T14:35:35.406Z,8.58
2023-02-13T14:38:08.215Z,8.61
2023-02-13T14:40:50.594Z,8.67
2023-02-13T14:43:20.803Z,8.67
2023-02-13T14:46:13.536Z,8.61
2023-02-13T14:48:49.300Z,8.66
2023-02-13T14:51:28.888Z,8.45
2023-02-13T14:54:06.869Z,8.37
2023-02-13T14:56:37.677Z,8.27
2023-02-13T14:59:14.064Z,8.29
2023-02-13T15:02:22.623Z,8.20
2023-02-13T15:04:54.328Z,8.16
2023-02-13T15:07:27.024Z,8.13
2023-02-13T15:10:23.630Z,8.15
2023-02-13T15:13:02.385Z,8.07
2023-02-13T15:15:34.445Z,7.84
2023-02-13T15:18:12.003Z,7.86
2023-02-13T15:20:43.455Z,7.74
2023-02-13T15:23:26.655Z,7.73
2023-02-13T15:26:03.723Z,7.62
2023-02-13T15:28:33.590Z,7.55
2023-02-13T15:31:05.638Z,7.51
2023-02-13T15:33:48.270Z,7.53
2023-02-13T15:36:20.329Z,7.63
2023-02-13T15:38:48.337Z,7.68
2023-02-13T15:41:22.954Z,7.60
2023-02-13T15:43:56.053Z,8.04
2023-02-13T15:46:38.819Z,8.77
2023-02-13T15:49:10.577Z,9.55
2023-02-13T15:51:38.530Z,10.16
2023-02-13T15:54:21.831Z,10.62
2023-02-13T15:56:51.866Z,11.75
2023-02-13T15:59:21.191Z,12.43
2023-02-13T16:01:51.753Z,12.70
2023-02-13T16:04:21.522Z,13.12
2023-02-13T16:06:52.149Z,13.37
2023-02-13T16:09:27.736Z,13.49
2023-02-13T16:12:00.443Z,13.51
2023-02-13T16:14:31.830Z,13.52
2023-02-13T16:17:08.348Z,13.67
2023-02-13T16:19:56.871Z,13.12
2023-02-13T16:23:13.617Z,11.79
2023-02-13T16:25:41.838Z,10.57
2023-02-13T16:28:24.376Z,10.02
2023-02-13T16:30:55.270Z,9.60
2023-02-13T16:33:28.967Z,9.24
2023-02-13T16:35:59.630Z,9.01
2023-02-13T16:38:42.020Z,8.77
2023-02-13T16:41:30.888Z,8.31
2023-02-13T16:43:59.504Z,8.22
2023-02-13T16:46:39.598Z,8.09
2023-02-13T16:49:07.805Z,8.20
2023-02-13T16:51:51.237Z,8.15
2023-02-13T16:54:27.121Z,7.98
2023-02-13T16:56:58.990Z,7.90
2023-02-13T16:59:48.048Z,7.81
2023-02-13T17:02:19.386Z,7.76
2023-02-13T17:05:09.679Z,7.65
2023-02-13T17:07:43.848Z,7.63
2023-02-13T17:10:23.732Z,7.57
2023-02-13T17:12:51.760Z,7.54
2023-02-13T17:15:22.256Z,7.49
2023-02-13T17:17:53.869Z,7.43
2023-02-13T17:20:25.891Z,7.46
2023-02-13T17:22:55.945Z,7.38
2023-02-13T17:25:32.489Z,7.38
2023-02-13T17:28:24.473Z,7.28
2023-02-13T17:30:54.243Z,7.12
2023-02-13T17:33:25.102Z,7.15
2023-02-13T17:35:53.296Z,7.16
2023-02-13T17:38:21.359Z,7.09
2023-02-13T17:40:49.401Z,7.08
2023-02-13T17:43:19.410Z,7.11
2023-02-13T17:45:47.748Z,7.08
2023-02-13T17:48:15.887Z,7.04
2023-02-13T17:50:43.801Z,6.97
2023-02-13T17:53:26.914Z,6.89
2023-02-13T17:55:54.881Z,6.87
2023-02-13T17:58:22.910Z,6.86
2023-02-13T18:00:50.900Z,6.84
2023-02-13T18:03:18.899Z,6.82
2023-02-13T18:05:50.051Z,6.81
2023-02-13T18:08:17.765Z,6.74
2023-02-13T18:10:45.779Z,6.74
2023-02-13T18:13:13.356Z,6.68
2023-02-13T18:15:43.148Z,6.61
2023-02-13T18:18:12.636Z,6.57
2023-02-13T18:20:40.702Z,6.48
2023-02-13T18:23:08.835Z,6.55
2023-02-13T18:25:36.922Z,6.58
2023-02-13T18:28:04.497Z,6.58
2023-02-13T18:30:32.061Z,6.55
2023-02-13T18:32:59.884Z,6.56
2023-02-13T18:35:27.642Z,6.52
2023-02-13T18:37:55.174Z,6.55
2023-02-13T18:40:23.101Z,6.55
2023-02-13T18:42:52.270Z,6.60
2023-02-13T18:45:19.938Z,6.60
2023-02-13T18:47:47.769Z,6.36
2023-02-13T18:50:15.392Z,6.40
2023-02-13T18:52:42.921Z,6.16
2023-02-13T18:55:10.788Z,6.06
2023-02-13T18:57:43.382Z,6.19
2023-02-13T19:00:14.236Z,6.24
2023-02-13T19:02:41.809Z,6.25
2023-02-13T19:05:09.428Z,6.23
2023-02-13T19:07:37.261Z,6.29
2023-02-13T19:10:05.168Z,6.34
2023-02-13T19:12:32.734Z,6.36
2023-02-13T19:15:00.613Z,6.35
2023-02-13T19:17:28.177Z,6.35
2023-02-13T19:19:55.848Z,6.41
2023-02-13T19:22:23.651Z,6.37
2023-02-13T19:24:51.222Z,6.37
2023-02-13T19:27:18.945Z,6.30
2023-02-13T19:29:47.515Z,6.30
2023-02-13T19:32:15.168Z,6.29
2023-02-13T19:34:42.736Z,6.31
2023-02-13T19:37:10.585Z,6.31
2023-02-13T19:39:38.213Z,6.25
2023-02-13T19:42:05.784Z,6.28
2023-02-13T19:44:33.617Z,6.27
2023-02-13T19:47:01.167Z,6.27
2023-02-13T19:49:28.770Z,6.19
2023-02-13T19:51:56.598Z,6.19
2023-02-13T19:54:24.081Z,6.24
2023-02-13T19:56:51.738Z,6.22
2023-02-13T19:59:19.522Z,6.17
2023-02-13T20:01:47.031Z,6.17
2023-02-13T20:04:14.898Z,6.16
2023-02-13T20:06:42.430Z,6.14
2023-02-13T20:09:12.821Z,6.09
2023-02-13T20:11:41.480Z,6.07
2023-02-13T20:14:14.785Z,6.05
2023-02-13T20:16:45.721Z,5.99
2023-02-13T20:19:14.102Z,5.99
2023-02-13T20:21:42.470Z,5.89
2023-02-13T20:24:11.343Z,5.90
2023-02-13T20:26:40.196Z,5.90
2023-02-13T20:29:08.980Z,5.92
2023-02-13T20:31:37.057Z,5.81
2023-02-13T20:34:06.597Z,5.78
2023-02-13T20:36:34.594Z,5.74
2023-02-13T20:39:05.014Z,5.66
2023-02-13T20:41:34.563Z,5.59
2023-02-13T20:44:08.360Z,5.63
2023-02-13T20:46:37.884Z,5.56
2023-02-13T20:49:06.538Z,5.58
2023-02-13T20:51:35.037Z,5.55
2023-02-13T20:54:03.620Z,5.58
2023-02-13T20:56:31.835Z,5.56
2023-02-13T20:59:00.120Z,5.51
2023-02-13T21:01:33.655Z,5.57
2023-02-13T21:04:01.638Z,5.55
2023-02-13T21:06:31.828Z,5.59
2023-02-13T21:08:59.667Z,5.61
2023-02-13T21:11:28.973Z,5.63
2023-02-13T21:13:57.887Z,5.61
2023-02-13T21:16:28.375Z,5.67
2023-02-13T21:18:59.398Z,5.64
2023-02-13T21:21:30.112Z,5.68
2023-02-13T21:24:01.613Z,5.68
2023-02-13T21:26:30.487Z,5.69
2023-02-13T21:28:59.526Z,5.68
2023-02-13T21:31:35.934Z,5.67
2023-02-13T21:34:10.856Z,5.62
2023-02-13T21:36:40.658Z,5.64
2023-02-13T21:39:11.207Z,5.64
2023-02-13T21:41:44.054Z,5.60
2023-02-13T21:44:14.587Z,5.62
2023-02-13T21:46:43.453Z,5.64
2023-02-13T21:49:17.236Z,5.66
2023-02-13T21:51:45.557Z,5.67
2023-02-13T21:54:13.512Z,5.75
2023-02-13T21:56:42.532Z,5.75
2023-02-13T21:59:15.321Z,5.78
2023-02-13T22:01:50.317Z,5.78
2023-02-13T22:04:18.824Z,5.76
2023-02-13T22:06:51.395Z,5.75
2023-02-13T22:09:20.840Z,5.76
2023-02-13T22:11:51.459Z,5.80
2023-02-13T22:14:20.139Z,5.70
2023-02-13T22:16:50.224Z,5.70
2023-02-13T22:19:17.960Z,5.74
2023-02-13T22:21:46.263Z,5.74
2023-02-13T22:24:13.881Z,5.67
2023-02-13T22:26:43.002Z,5.69
2023-02-13T22:29:13.666Z,5.70
2023-02-13T22:31:41.673Z,5.75
2023-02-13T22:34:12.012Z,5.71
2023-02-13T22:36:40.320Z,5.69
2023-02-13T22:39:09.777Z,5.70
2023-02-13T22:41:37.688Z,5.68
2023-02-13T22:44:05.819Z,5.62
2023-02-13T22:46:34.440Z,5.66
2023-02-13T22:49:02.341Z,5.60
2023-02-13T22:51:36.041Z,5.64
2023-02-13T22:54:04.552Z,5.63
2023-02-13T22:56:32.747Z,5.58
2023-02-13T22:59:02.879Z,5.55
2023-02-13T23:01:30.543Z,5.57
2023-02-13T23:03:58.786Z,5.60
2023-02-13T23:06:27.054Z,5.63
2023-02-13T23:08:55.283Z,5.59
2023-02-13T23:11:44.665Z,5.52
2023-02-13T23:14:12.981Z,5.60
2023-02-13T23:17:01.108Z,5.55
2023-02-13T23:19:30.147Z,5.52
2023-02-13T23:21:58.892Z,5.57
2023-02-13T23:24:26.624Z,5.55
2023-02-13T23:26:54.312Z,5.59
2023-02-13T23:29:22.477Z,5.61
2023-02-13T23:31:50.100Z,5.60
2023-02-13T23:34:17.710Z,5.65
2023-02-13T23:36:45.572Z,5.61
2023-02-13T23:39:13.164Z,5.65
2023-02-13T23:41:40.905Z,5.61
2023-02-13T23:44:08.668Z,5.60
2023-02-13T23:46:36.239Z,5.57
2023-02-13T23:49:05.524Z,5.57
2023-02-13T23:51:34.322Z,5.53
2023-02-13T23:54:01.861Z,5.55
2023-02-13T23:56:29.315Z,5.51
2023-02-13T23:58:57.266Z,5.45
